Time;durP1;ratioP1;P1;durP2;ratioP2;P2;SDS_P1;SDS_P2;PMS_P1;PMS_P2;Temp;Humidity;BMP_temperature;BMP_pressure;BME280_temperature;BME280_humidity;BME280_pressure;Samples;Min_cycle;Max_cycle;Signal;HPM_P1;HPM_P2
2021/11/20 00:00:23;;;;;;;11.52;7.72;;;;;;;;;;4979671;28;20034;-79
2021/11/20 00:02:50;;;;;;;10.80;7.30;;;;;;;;;;4980668;28;20035;-80
2021/11/20 00:05:19;;;;;;;15.40;7.53;;;;;;;;;;4981978;28;20050;-81
2021/11/20 00:07:45;;;;;;;13.55;7.47;;;;;;;;;;4981491;28;20031;-80
2021/11/20 00:10:12;;;;;;;13.35;7.45;;;;;;;;;;4995079;28;20030;-81
2021/11/20 00:12:41;;;;;;;11.77;7.47;;;;;;;;;;4985159;28;20487;-81
2021/11/20 00:15:08;;;;;;;13.85;7.97;;;;;;;;;;4984636;28;20027;-81
2021/11/20 00:17:34;;;;;;;11.43;6.72;;;;;;;;;;4984807;28;20022;-80
2021/11/20 00:20:00;;;;;;;14.10;8.07;;;;;;;;;;4986416;28;20061;-80
2021/11/20 00:22:30;;;;;;;12.80;7.75;;;;;;;;;;4964812;28;20094;-81
2021/11/20 00:25:08;;;;;;;12.32;7.53;;;;;;;;;;4983192;28;20669;-81
2021/11/20 00:27:37;;;;;;;12.85;7.97;;;;;;;;;;4978779;28;20085;-81
2021/11/20 00:30:18;;;;;;;14.32;7.70;;;;;;;;;;4966877;28;20033;-80
2021/11/20 00:32:50;;;;;;;10.48;6.90;;;;;;;;;;4981605;28;20037;-80
2021/11/20 00:35:18;;;;;;;12.82;7.43;;;;;;;;;;4981004;28;20019;-81
2021/11/20 00:37:45;;;;;;;12.68;6.60;;;;;;;;;;4984132;28;20158;-81
2021/11/20 00:40:14;;;;;;;10.88;6.72;;;;;;;;;;4958804;28;20049;-80
2021/11/20 00:42:40;;;;;;;8.70;6.25;;;;;;;;;;4984950;28;20028;-81
2021/11/20 00:45:06;;;;;;;9.02;6.05;;;;;;;;;;4985635;28;20089;-81
2021/11/20 00:47:32;;;;;;;11.18;6.88;;;;;;;;;;4983366;28;20044;-81
2021/11/20 00:49:58;;;;;;;12.63;6.72;;;;;;;;;;4966456;28;20037;-81
2021/11/20 00:52:25;;;;;;;9.15;6.47;;;;;;;;;;4983893;28;20026;-81
2021/11/20 00:54:51;;;;;;;13.57;7.55;;;8.60;99.90;;;;;;4983824;28;20403;-81
2021/11/20 00:57:17;;;;;;;10.65;7.15;;;8.40;99.90;;;;;;4949312;28;20023;-82
2021/11/20 00:59:43;;;;;;;11.40;7.20;;;7.80;99.90;;;;;;4965667;28;20631;-82
2021/11/20 01:02:09;;;;;;;12.68;8.73;;;7.90;99.90;;;;;;4963075;29;20200;-82
2021/11/20 01:04:36;;;;;;;9.85;6.75;;;9.10;99.90;;;;;;4948161;29;20130;-78
2021/11/20 01:07:03;;;;;;;11.73;7.20;;;7.70;99.90;;;;;;4940986;29;20055;-78
2021/11/20 01:09:34;;;;;;;13.93;7.93;;;7.70;99.90;;;;;;4973608;28;20491;-81
2021/11/20 01:12:08;;;;;;;11.70;7.28;;;7.80;99.90;;;;;;4986604;28;20026;-81
2021/11/20 01:14:35;;;;;;;10.43;6.95;;;7.70;99.90;;;;;;4972316;28;20035;-81
2021/11/20 01:17:03;;;;;;;13.45;8.00;;;7.80;99.90;;;;;;4985207;28;20067;-81
2021/11/20 01:19:29;;;;;;;11.15;7.53;;;7.70;99.90;;;;;;4950915;28;20058;-81
2021/11/20 01:21:58;;;;;;;10.10;7.07;;;7.70;99.90;;;;;;4970595;28;20094;-81
2021/11/20 01:24:24;;;;;;;11.75;7.47;;;8.10;99.90;;;;;;4970280;28;20086;-81
2021/11/20 01:26:50;;;;;;;10.40;7.00;;;8.50;99.90;;;;;;4986542;28;20023;-81
2021/11/20 01:29:16;;;;;;;11.77;7.13;;;7.60;99.90;;;;;;4972383;28;20115;-81
2021/11/20 01:31:45;;;;;;;9.73;6.40;;;7.90;99.90;;;;;;4984992;28;20057;-81
2021/11/20 01:34:11;;;;;;;10.68;7.30;;;7.60;99.90;;;;;;4993969;28;20027;-79
2021/11/20 01:36:39;;;;;;;10.85;6.72;;;7.60;99.90;;;;;;4976862;28;20031;-80
2021/11/20 01:39:09;;;;;;;10.07;7.10;;;7.80;99.90;;;;;;4997777;28;20034;-81
2021/11/20 01:41:36;;;;;;;11.75;6.80;;;7.70;99.90;;;;;;4980706;28;20039;-81
2021/11/20 01:44:16;;;;;;;11.70;7.60;;;7.80;99.90;;;;;;4982866;28;20035;-81
2021/11/20 01:46:50;;;;;;;9.07;6.57;;;7.80;99.90;;;;;;4982299;28;20456;-81
2021/11/20 01:49:26;;;;;;;8.77;6.38;;;9.40;99.90;;;;;;4974488;28;20046;-80
2021/11/20 01:52:00;;;;;;;9.57;7.22;;;9.80;99.90;;;;;;4951867;29;20035;-81
2021/11/20 01:54:29;;;;;;;9.63;6.82;;;7.40;99.90;;;;;;4951082;29;20042;-81
2021/11/20 01:57:07;;;;;;;11.20;7.15;;;8.40;99.90;;;;;;4949906;29;20031;-80
2021/11/20 01:59:57;;;;;;;10.38;6.80;;;7.40;99.90;;;;;;4969403;28;20026;-81
2021/11/20 02:02:48;;;;;;;9.77;6.78;;;7.30;99.90;;;;;;4942391;29;20040;-81
2021/11/20 02:05:27;;;;;;;9.15;6.32;;;7.40;99.90;;;;;;4981324;28;20038;-81
2021/11/20 02:08:09;;;;;;;10.13;6.72;;;7.50;99.90;;;;;;4968303;28;20027;-81
2021/11/20 02:10:44;;;;;;;8.77;6.47;;;7.60;99.90;;;;;;4973322;28;20027;-81
2021/11/20 02:13:13;;;;;;;9.55;6.38;;;8.30;99.90;;;;;;4967989;28;20038;-81
2021/11/20 02:15:58;;;;;;;9.13;6.10;;;7.60;99.90;;;;;;4967979;28;20058;-80
2021/11/20 02:18:26;;;;;;;10.55;6.50;;;7.60;99.90;;;;;;4987630;28;20050;-81
2021/11/20 02:20:59;;;;;;;9.55;6.90;;;7.70;99.90;;;;;;4968707;28;20034;-81
2021/11/20 02:23:25;;;;;;;9.05;6.13;;;7.50;99.90;;;;;;4985600;28;20041;-81
2021/11/20 02:25:50;;;;;;;11.32;6.28;;;7.40;99.90;;;;;;4967409;28;20148;-82
2021/11/20 02:28:16;;;;;;;8.35;6.68;;;7.40;99.90;;;;;;4983117;28;20439;-81
2021/11/20 02:30:44;;;;;;;9.98;5.93;;;8.10;99.90;;;;;;4996804;28;20034;-80
2021/11/20 02:33:32;;;;;;;14.23;6.20;;;7.50;99.90;;;;;;4967780;28;20034;-81
2021/11/20 02:36:02;;;;;;;10.32;6.80;;;7.50;99.90;;;;;;4984975;28;20035;-80
2021/11/20 02:38:32;;;;;;;10.18;6.70;;;8.90;99.90;;;;;;4968993;28;20065;-80
2021/11/20 02:40:59;;;;;;;10.07;6.80;;;7.50;99.90;;;;;;4952750;28;20042;-80
2021/11/20 02:43:28;;;;;;;10.27;6.07;;;7.50;99.90;;;;;;4984672;28;20392;-81
2021/11/20 02:45:56;;;;;;;10.95;6.85;;;8.40;99.90;;;;;;4952059;28;20054;-81
2021/11/20 02:48:22;;;;;;;11.75;7.78;;;9.20;99.90;;;;;;4974582;28;20495;-79
2021/11/20 02:50:53;;;;;;;10.27;6.78;;;7.50;99.90;;;;;;5005157;28;20022;-81
2021/11/20 02:53:29;;;;;;;10.50;6.93;;;7.60;99.90;;;;;;5005185;28;20030;-81
2021/11/20 02:55:55;;;;;;;12.32;7.10;;;8.90;99.90;;;;;;4966899;28;20571;-80
2021/11/20 02:58:23;;;;;;;10.70;6.80;;;8.10;99.90;;;;;;4973567;28;20061;-81
2021/11/20 03:01:06;;;;;;;10.50;6.28;;;7.40;99.90;;;;;;4983065;28;20023;-81
2021/11/20 03:03:32;;;;;;;10.73;6.70;;;7.80;99.90;;;;;;4984910;28;20031;-82
2021/11/20 03:05:58;;;;;;;10.93;6.60;;;7.40;99.90;;;;;;4971072;28;20029;-81
2021/11/20 03:08:24;;;;;;;9.48;5.97;;;8.50;99.90;;;;;;4961441;29;20028;-81
2021/11/20 03:10:50;;;;;;;9.23;6.28;;;8.10;99.90;;;;;;4998586;28;20025;-81
2021/11/20 03:13:17;;;;;;;9.70;6.82;;;7.50;99.90;;;;;;4951862;28;20035;-81
2021/11/20 03:15:43;;;;;;;11.32;6.88;;;7.50;99.90;;;;;;4968042;28;20027;-81
2021/11/20 03:18:09;;;;;;;13.10;7.00;;;7.60;99.90;;;;;;4974809;28;20026;-81
2021/11/20 03:20:35;;;;;;;10.52;6.38;;;7.40;99.90;;;;;;4987224;28;20058;-81
2021/11/20 03:23:06;;;;;;;9.65;6.32;;;7.60;99.90;;;;;;4970894;28;20615;-81
2021/11/20 03:25:32;;;;;;;9.43;6.38;;;7.50;99.90;;;;;;4986592;28;20053;-81
2021/11/20 03:27:58;;;;;;;12.27;7.20;;;7.40;99.90;;;;;;4983547;28;20027;-80
2021/11/20 03:30:24;;;;;;;9.75;6.97;;;7.50;99.90;;;;;;4963545;28;20027;-81
2021/11/20 03:32:50;;;;;;;8.38;6.65;;;7.80;99.90;;;;;;4966970;28;20094;-81
2021/11/20 03:35:16;;;;;;;11.57;6.97;;;9.30;99.90;;;;;;4984148;28;20031;-81
2021/11/20 03:37:42;;;;;;;10.77;7.38;;;7.60;99.90;;;;;;4966630;28;20030;-81
2021/11/20 03:40:10;;;;;;;9.55;6.28;;;7.50;99.90;;;;;;4981747;28;20088;-81
2021/11/20 03:42:36;;;;;;;9.60;6.50;;;7.60;99.90;;;;;;4992232;23;20561;-82
2021/11/20 03:45:03;;;;;;;11.70;6.38;;;7.60;99.90;;;;;;5016876;28;20072;-82
2021/11/20 03:47:29;;;;;;;8.88;6.57;;;9.20;99.90;;;;;;5016189;28;20030;-82
2021/11/20 03:49:55;;;;;;;11.43;6.78;;;7.80;99.90;;;;;;5033310;28;20084;-82
2021/11/20 03:52:20;;;;;;;13.55;5.80;;;7.80;99.90;;;;;;5019467;28;20025;-83
2021/11/20 03:54:47;;;;;;;9.82;6.38;;;7.70;99.90;;;;;;5037593;28;20078;-83
2021/11/20 03:57:13;;;;;;;9.52;6.32;;;7.70;99.90;;;;;;5020977;28;20037;-82
2021/11/20 03:59:39;;;;;;;10.13;5.90;;;7.60;99.90;;;;;;5036843;28;20035;-83
2021/11/20 04:02:04;;;;;;;9.95;5.90;;;9.10;99.90;;;;;;5018206;28;20030;-82
2021/11/20 04:04:31;;;;;;;9.13;5.72;;;7.60;99.90;;;;;;5002555;28;20032;-83
2021/11/20 04:06:57;;;;;;;11.32;5.82;;;7.70;99.90;;;;;;5016690;28;20449;-83
2021/11/20 04:09:23;;;;;;;8.50;6.03;;;8.30;99.90;;;;;;5018259;28;20030;-82
2021/11/20 04:11:50;;;;;;;8.43;5.90;;;7.70;99.90;;;;;;4986777;28;20034;-82
2021/11/20 04:14:18;;;;;;;8.13;5.90;;;8.80;99.90;;;;;;5009730;28;20026;-81
2021/11/20 04:16:45;;;;;;;9.85;5.70;;;7.60;99.90;;;;;;5018890;28;20063;-82
2021/11/20 04:19:10;;;;;;;9.55;5.45;;;8.60;99.90;;;;;;5001132;28;20454;-82
2021/11/20 04:21:37;;;;;;;9.00;5.43;;;9.30;99.90;;;;;;4997776;28;20030;-82
2021/11/20 04:24:05;;;;;;;8.55;5.68;;;7.60;99.90;;;;;;5014169;28;20446;-82
2021/11/20 04:26:31;;;;;;;7.63;5.53;;;7.50;99.90;;;;;;4980747;28;20037;-82
2021/11/20 04:28:57;;;;;;;8.48;5.88;;;7.40;99.90;;;;;;5013320;28;20093;-82
2021/11/20 04:31:24;;;;;;;11.75;6.35;;;8.30;99.90;;;;;;5013734;28;20110;-82
2021/11/20 04:33:52;;;;;;;9.98;6.20;;;7.30;99.90;;;;;;5010019;28;20045;-82
2021/11/20 04:36:18;;;;;;;12.75;5.90;;;8.40;99.90;;;;;;5029183;28;20033;-82
2021/11/20 04:38:45;;;;;;;10.40;6.25;;;7.50;99.90;;;;;;5046340;28;20014;-81
2021/11/20 04:41:12;;;;;;;8.90;6.45;;;7.40;99.90;;;;;;5038838;28;20033;-83
2021/11/20 04:43:38;;;;;;;10.85;6.70;;;7.50;99.90;;;;;;5036914;28;20022;-83
2021/11/20 04:46:04;;;;;;;10.40;7.28;;;8.70;99.90;;;;;;5037802;28;20022;-83
2021/11/20 04:48:29;;;;;;;11.80;7.25;;;7.40;99.90;;;;;;5002733;28;20099;-83
2021/11/20 04:50:57;;;;;;;8.98;6.35;;;7.50;99.90;;;;;;5039885;28;20030;-83
2021/11/20 04:53:23;;;;;;;12.07;7.03;;;8.90;99.90;;;;;;5036987;28;20025;-82
2021/11/20 04:55:49;;;;;;;11.45;7.20;;;7.60;99.90;;;;;;5037108;28;20117;-81
2021/11/20 04:58:16;;;;;;;14.13;7.80;;;7.30;99.90;;;;;;5018422;28;20076;-82
2021/11/20 05:00:50;;;;;;;13.98;7.25;;;7.30;99.90;;;;;;5017656;28;20036;-81
2021/11/20 05:03:16;;;;;;;11.25;7.45;;;7.10;99.90;;;;;;5020225;28;20026;-81
2021/11/20 05:05:45;;;;;;;10.57;7.30;;;9.10;99.90;;;;;;5038498;28;20087;-81
2021/11/20 05:08:10;;;;;;;10.75;7.32;;;7.00;99.90;;;;;;5041109;28;20058;-81
2021/11/20 05:10:39;;;;;;;11.73;7.25;;;6.90;99.90;;;;;;5030441;28;20052;-79
2021/11/20 05:13:05;;;;;;;12.65;8.18;;;7.70;99.90;;;;;;5033408;28;20042;-81
2021/11/20 05:15:32;;;;;;;12.07;7.88;;;8.10;99.90;;;;;;5031186;28;20029;-81
2021/11/20 05:17:58;;;;;;;13.18;8.27;;;8.40;99.90;;;;;;5008440;28;20060;-82
2021/11/20 05:20:24;;;;;;;11.43;7.78;;;6.80;99.90;;;;;;5002567;28;20034;-82
2021/11/20 05:22:49;;;;;;;12.52;8.55;;;6.30;99.90;;;;;;5019946;28;20089;-81
2021/11/20 05:25:19;;;;;;;14.20;9.15;;;6.40;99.90;;;;;;5017231;28;20021;-81
2021/11/20 05:27:45;;;;;;;14.93;8.23;;;6.40;99.90;;;;;;5002859;28;20022;-81
2021/11/20 05:30:22;;;;;;;15.65;7.75;;;6.40;99.90;;;;;;5020395;28;20026;-81
2021/11/20 05:32:49;;;;;;;16.35;7.55;;;6.40;99.90;;;;;;5002879;28;20033;-82
2021/11/20 05:35:18;;;;;;;14.95;8.07;;;6.30;99.90;;;;;;5020834;28;20702;-82
2021/11/20 05:37:44;;;;;;;11.38;7.60;;;6.20;99.90;;;;;;5019965;28;20032;-82
2021/11/20 05:40:13;;;;;;;15.13;8.57;;;6.10;99.90;;;;;;5037149;28;20056;-82
2021/11/20 05:42:44;;;;;;;13.23;7.65;;;6.00;99.90;;;;;;5039517;28;20034;-82
2021/11/20 05:45:12;;;;;;;13.05;8.13;;;6.00;99.90;;;;;;5022998;28;20029;-82
2021/11/20 05:47:37;;;;;;;11.23;7.63;;;5.90;99.90;;;;;;5040412;28;20028;-82
2021/11/20 05:50:05;;;;;;;14.35;8.18;;;5.80;99.90;;;;;;5005605;28;20033;-81
2021/11/20 05:52:30;;;;;;;12.23;7.78;;;5.80;99.90;;;;;;5021785;28;20029;-82
2021/11/20 05:54:57;;;;;;;13.68;7.82;;;5.80;99.90;;;;;;5006605;28;20033;-82
2021/11/20 05:57:22;;;;;;;15.07;8.30;;;6.50;99.90;;;;;;5039617;28;20508;-82
2021/11/20 05:59:48;;;;;;;19.00;12.05;;;5.70;99.90;;;;;;5038962;28;20033;-82
2021/11/20 06:02:15;;;;;;;25.05;15.52;;;5.50;99.90;;;;;;5039977;28;20025;-82
2021/11/20 06:04:41;;;;;;;19.05;12.43;;;6.80;99.90;;;;;;5039957;28;20033;-82
2021/11/20 06:07:11;;;;;;;19.83;12.98;;;6.50;99.90;;;;;;5039523;28;20028;-81
2021/11/20 06:09:37;;;;;;;20.27;13.50;;;5.60;99.90;;;;;;5025924;28;20022;-82
2021/11/20 06:12:03;;;;;;;30.58;19.10;;;5.60;99.90;;;;;;5020106;28;20116;-82
2021/11/20 06:14:28;;;;;;;15.90;10.10;;;5.60;99.90;;;;;;5019794;28;20057;-82
2021/11/20 06:16:54;;;;;;;14.43;8.40;;;5.70;99.90;;;;;;5019910;28;20026;-82
2021/11/20 06:19:19;;;;;;;14.63;9.07;;;5.80;99.90;;;;;;5016625;28;20037;-82
2021/11/20 06:21:45;;;;;;;15.05;8.50;;;5.80;99.90;;;;;;5021478;28;20450;-83
2021/11/20 06:24:11;;;;;;;22.30;9.52;;;5.80;99.90;;;;;;5006934;28;20040;-81
2021/11/20 06:26:36;;;;;;;14.98;8.55;;;5.60;99.90;;;;;;5020450;28;20030;-83
2021/11/20 06:29:04;;;;;;;13.25;8.20;;;5.50;99.90;;;;;;5020073;28;20101;-83
2021/11/20 06:31:30;;;;;;;16.00;9.40;;;5.50;99.90;;;;;;5019548;28;20044;-81
2021/11/20 06:33:58;;;;;;;17.58;8.82;;;5.50;99.90;;;;;;5019023;28;20554;-83
2021/11/20 06:36:24;;;;;;;16.73;8.80;;;5.50;99.90;;;;;;4986416;28;20072;-82
2021/11/20 06:38:50;;;;;;;17.98;9.38;;;5.70;99.90;;;;;;5011745;28;20068;-82
2021/11/20 06:41:16;;;;;;;18.02;9.65;;;5.50;99.90;;;;;;5006131;28;20045;-81
2021/11/20 06:43:41;;;;;;;19.38;10.00;;;6.90;99.90;;;;;;5016619;28;20030;-81
2021/11/20 06:46:11;;;;;;;19.13;10.23;;;5.50;99.90;;;;;;5018658;28;20033;-84
2021/11/20 06:48:38;;;;;;;18.92;10.68;;;5.60;99.90;;;;;;4999718;28;20506;-81
2021/11/20 06:51:06;;;;;;;18.27;11.68;;;5.60;99.90;;;;;;5017866;28;20525;-82
2021/11/20 06:53:32;;;;;;;15.65;10.40;;;5.70;99.90;;;;;;5018811;28;20477;-81
2021/11/20 06:55:58;;;;;;;16.15;10.07;;;5.70;99.90;;;;;;5000807;28;20022;-83
2021/11/20 06:58:52;;;;;;;16.55;9.93;;;7.30;99.90;;;;;;5001372;28;20029;-82
2021/11/20 07:01:20;;;;;;;20.35;11.00;;;5.80;99.90;;;;;;5010498;28;20479;-82
2021/11/20 07:04:08;;;;;;;17.60;9.55;;;7.60;99.90;;;;;;5024120;28;20125;-82
2021/11/20 07:07:05;;;;;;;15.93;9.50;;;5.80;99.90;;;;;;5034575;28;20028;-81
2021/11/20 07:09:33;;;;;;;15.38;9.77;;;5.70;99.90;;;;;;5006362;28;20577;-81
2021/11/20 07:12:00;;;;;;;20.10;10.65;;;5.90;99.90;;;;;;5039297;28;20040;-82
2021/11/20 07:14:26;;;;;;;20.23;10.63;;;5.70;99.90;;;;;;5038789;28;20068;-82
2021/11/20 07:16:52;;;;;;;19.75;10.23;;;8.30;99.90;;;;;;5037994;28;20037;-82
2021/11/20 07:19:19;;;;;;;20.70;11.15;;;5.90;99.90;;;;;;5036575;28;20033;-82
2021/11/20 07:21:45;;;;;;;18.15;10.65;;;6.00;99.90;;;;;;5037965;28;20528;-79
2021/11/20 07:24:13;;;;;;;20.40;11.13;;;6.10;99.90;;;;;;5037772;28;20029;-83
2021/11/20 07:26:40;;;;;;;20.27;12.15;;;6.10;99.90;;;;;;5038118;28;20395;-81
2021/11/20 07:29:07;;;;;;;20.77;11.95;;;7.10;99.90;;;;;;5037432;28;20074;-82
2021/11/20 07:31:33;;;;;;;18.90;11.52;;;6.10;99.90;;;;;;5022971;28;20149;-81
2021/11/20 07:33:59;;;;;;;18.63;10.85;;;6.30;99.90;;;;;;5017752;28;20478;-82
2021/11/20 07:36:25;;;;;;;14.52;9.77;;;6.40;99.90;;;;;;5015655;28;20037;-84
2021/11/20 07:38:55;;;;;;;15.10;8.35;;;7.50;99.90;;;;;;5016777;28;20033;-81
2021/11/20 07:41:24;;;;;;;19.92;10.02;;;6.60;99.90;;;;;;5016591;28;20026;-83
2021/11/20 07:43:50;;;;;;;18.23;10.55;;;6.50;99.90;;;;;;5018413;28;20060;-82
2021/11/20 07:46:17;;;;;;;15.63;9.80;;;6.50;99.90;;;;;;4999545;28;20371;-82
2021/11/20 07:48:43;;;;;;;21.30;9.20;;;6.60;99.90;;;;;;5019229;28;20508;-84
2021/11/20 07:51:10;;;;;;;16.40;8.95;;;8.90;99.90;;;;;;5035499;28;20108;-84
2021/11/20 07:53:36;;;;;;;15.40;10.25;;;6.70;99.90;;;;;;5012213;28;20026;-82
2021/11/20 07:56:03;;;;;;;13.80;9.55;;;8.20;99.90;;;;;;5020915;28;20033;-81
2021/11/20 07:58:29;;;;;;;15.40;10.27;;;6.70;99.90;;;;;;5008558;28;20025;-83
2021/11/20 08:00:55;;;;;;;16.30;10.18;;;8.60;99.90;;;;;;5026811;28;20036;-83
2021/11/20 08:03:21;;;;;;;15.27;9.43;;;6.70;99.90;;;;;;5043716;28;20056;-85
2021/11/20 08:05:48;;;;;;;16.85;10.60;;;6.90;99.90;;;;;;5036811;28;20030;-80
2021/11/20 08:08:14;;;;;;;18.88;10.00;;;6.90;99.90;;;;;;5038352;28;20061;-83
2021/11/20 08:10:41;;;;;;;16.33;10.15;;;6.90;99.90;;;;;;5037599;28;20032;-81
2021/11/20 08:13:07;;;;;;;15.63;9.73;;;8.80;99.90;;;;;;5038076;28;20021;-85
2021/11/20 08:15:34;;;;;;;13.35;9.02;;;9.30;99.90;;;;;;5037228;28;20029;-85
2021/11/20 08:18:00;;;;;;;13.82;8.82;;;7.00;99.90;;;;;;5037663;28;20033;-86
2021/11/20 08:20:31;;;;;;;13.52;8.93;;;6.90;99.90;;;;;;5018817;28;20445;-84
2021/11/20 08:22:58;;;;;;;12.43;8.95;;;7.40;99.90;;;;;;5037012;28;20030;-86
2021/11/20 08:25:25;;;;;;;11.35;8.40;;;8.30;99.90;;;;;;5037626;28;20505;-86
2021/11/20 08:27:52;;;;;;;14.15;8.93;;;7.20;99.90;;;;;;5038215;28;20028;-81
2021/11/20 08:30:22;;;;;;;14.27;8.80;;;7.20;99.90;;;;;;4999674;28;20022;-86
2021/11/20 08:32:49;;;;;;;13.32;8.57;;;8.20;99.90;;;;;;5018729;28;20109;-86
2021/11/20 08:35:16;;;;;;;11.65;8.50;;;9.80;99.90;;;;;;5018563;28;20076;-83
2021/11/20 08:37:43;;;;;;;14.80;8.45;;;7.60;99.90;;;;;;5030600;28;20462;-85
2021/11/20 08:40:13;;;;;;;11.57;8.13;;;9.10;99.90;;;;;;5018105;28;20573;-82
2021/11/20 08:42:40;;;;;;;11.35;7.80;;;7.90;99.90;;;;;;5017793;28;20641;-84
2021/11/20 08:45:10;;;;;;;12.43;8.73;;;7.70;99.90;;;;;;5018067;28;20038;-85
2021/11/20 08:47:35;;;;;;;11.43;7.93;;;7.80;99.90;;;;;;5017934;28;20045;-85
2021/11/20 08:50:03;;;;;;;13.48;9.13;;;10.50;99.90;;;;;;5018470;28;20029;-83
2021/11/20 08:52:28;;;;;;;13.27;8.77;;;7.80;99.90;;;;;;5020630;28;20028;-85
2021/11/20 08:54:56;;;;;;;13.85;8.68;;;7.80;99.90;;;;;;5020438;28;20029;-85
2021/11/20 08:57:23;;;;;;;14.07;9.32;;;9.80;99.90;;;;;;5000125;28;20033;-85
2021/11/20 08:59:49;;;;;;;12.45;8.57;;;9.80;99.90;;;;;;5000343;28;20034;-85
2021/11/20 09:02:34;;;;;;;11.52;7.97;;;8.50;99.90;;;;;;5001266;28;20352;-84
2021/11/20 09:05:10;;;;;;;12.95;8.32;;;9.00;99.90;;;;;;5019423;28;20033;-83
2021/11/20 09:07:40;;;;;;;12.82;7.50;;;;;;;;;;5027654;28;20029;-84
2021/11/20 09:10:10;;;;;;;9.68;7.28;;;;;;;;;;5036109;28;20071;-85
2021/11/20 09:12:50;;;;;;;10.48;6.47;;;;;;;;;;5034468;28;20497;-85
2021/11/20 09:15:37;;;;;;;10.57;7.05;;;;;;;;;;5020413;28;20163;-83
2021/11/20 09:18:03;;;;;;;10.65;7.18;;;;;;;;;;5051429;28;20029;-82
2021/11/20 09:20:30;;;;;;;8.52;6.43;;;;;;;;;;5055045;28;20048;-81
2021/11/20 09:22:56;;;;;;;9.93;6.47;;;;;;;;;;5028792;28;20034;-85
2021/11/20 09:25:22;;;;;;;8.45;5.95;;;;;;;;;;5037372;28;20129;-84
2021/11/20 09:27:49;;;;;;;11.40;7.03;;;;;;;;;;5037040;28;20029;-85
2021/11/20 09:30:20;;;;;;;9.48;6.47;;;;;;;;;;5033307;28;20040;-83
2021/11/20 09:32:46;;;;;;;8.48;6.05;;;;;;;;;;5017680;28;20036;-85
2021/11/20 09:35:13;;;;;;;11.18;6.68;;;;;;;;;;5018292;28;20089;-85
2021/11/20 09:37:39;;;;;;;7.82;5.88;;;;;;;;;;5015068;28;20034;-82
2021/11/20 09:40:06;;;;;;;10.93;6.25;;;;;;;;;;4986142;28;20044;-81
2021/11/20 09:42:35;;;;;;;9.18;6.60;;;;;;;;;;5016923;23;20128;-78
2021/11/20 09:45:06;;;;;;;11.98;7.20;;;;;;;;;;5006349;28;20033;-78
2021/11/20 09:47:34;;;;;;;10.00;7.05;;;;;;;;;;5013358;28;20044;-78
2021/11/20 09:50:05;;;;;;;9.05;6.65;;;;;;;;;;5013228;28;20030;-78
2021/11/20 09:52:32;;;;;;;10.35;7.68;;;;;;;;;;5010648;28;20049;-78
2021/11/20 09:54:58;;;;;;;10.80;7.90;;;;;;;;;;4994823;28;20060;-78
2021/11/20 09:57:30;;;;;;;10.15;8.10;;;;;;;;;;4999445;28;20035;-78
2021/11/20 10:00:03;;;;;;;10.38;7.78;;;;;;;;;;5015776;28;20025;-77
2021/11/20 10:02:49;;;;;;;12.95;8.60;;;;;;;;;;5018046;28;20496;-78
2021/11/20 10:05:21;;;;;;;11.45;8.95;;;;;;;;;;5013615;28;20449;-77
2021/11/20 10:08:06;;;;;;;12.93;9.38;;;;;;;;;;5012851;28;20501;-77
2021/11/20 10:10:32;;;;;;;11.68;8.15;;;;;;;;;;4997643;28;20033;-78
2021/11/20 10:13:04;;;;;;;11.55;8.20;;;;;;;;;;4998539;28;20023;-78
2021/11/20 10:15:34;;;;;;;11.48;8.38;;;;;;;;;;4997849;28;20034;-78
2021/11/20 10:18:12;;;;;;;14.45;9.02;;;;;;;;;;4998886;28;20541;-78
2021/11/20 10:20:46;;;;;;;12.93;8.57;;;;;;;;;;5015812;28;20478;-77
2021/11/20 10:23:31;;;;;;;10.85;8.35;;;;;;;;;;5016611;28;20053;-78
2021/11/20 10:26:15;;;;;;;12.27;8.65;;;;;;;;;;5017471;28;20026;-78
2021/11/20 10:28:41;;;;;;;10.50;7.75;;;;;;;;;;4996058;28;20410;-78
2021/11/20 10:31:15;;;;;;;11.80;8.30;;;;;;;;;;5019506;28;20041;-78
2021/11/20 10:33:43;;;;;;;11.90;8.32;;;;;;;;;;5006795;28;20038;-78
2021/11/20 10:36:12;;;;;;;11.23;8.43;;;;;;;;;;4998621;28;20035;-78
2021/11/20 10:38:57;;;;;;;10.75;7.72;;;;;;;;;;5002175;28;20026;-78
2021/11/20 10:41:28;;;;;;;9.85;6.90;;;;;;;;;;4999300;28;20669;-78
2021/11/20 10:43:56;;;;;;;10.95;7.75;;;;;;;;;;5017236;28;20032;-78
2021/11/20 10:46:24;;;;;;;10.38;7.32;;;;;;;;;;5017154;28;20382;-78
2021/11/20 10:49:11;;;;;;;11.20;7.82;;;;;;;;;;5007206;28;20360;-78
2021/11/20 10:51:55;;;;;;;10.50;7.32;;;;;;;;;;4967612;28;20038;-78
2021/11/20 10:54:40;;;;;;;8.70;6.63;;;;;;;;;;4997891;28;20035;-78
2021/11/20 10:57:10;;;;;;;9.07;6.55;;;;;;;;;;4997246;28;20403;-78
2021/11/20 10:59:47;;;;;;;10.60;7.00;;;;;;;;;;5012041;28;20104;-78
2021/11/20 11:02:22;;;;;;;9.00;6.93;;;;;;;;;;4996480;28;20088;-78
2021/11/20 11:05:16;;;;;;;9.13;6.95;;;;;;;;;;4997514;28;20430;-78
2021/11/20 11:07:45;;;;;;;8.73;5.80;;;;;;;;;;4999256;28;20018;-78
2021/11/20 11:10:15;;;;;;;10.73;7.35;;;;;;;;;;4999354;28;20395;-78
2021/11/20 11:13:02;;;;;;;4.57;3.08;;;;;;;;;;4996178;28;20018;-79
2021/11/20 11:15:51;;;;;;;3.90;2.72;;;;;;;;;;4978847;28;20034;-78
2021/11/20 11:18:23;;;;;;;4.13;2.67;;;;;;;;;;4985820;28;20046;-77
2021/11/20 11:21:25;;;;;;;3.38;2.22;;;;;;;;;;5026337;28;20056;-78
2021/11/20 11:23:51;;;;;;;3.50;1.92;;;;;;;;;;5019428;28;20121;-78
2021/11/20 11:26:18;;;;;;;2.92;2.20;;;;;;;;;;5018162;28;20076;-79
2021/11/20 11:28:52;;;;;;;3.15;1.85;;;;;;;;;;5007856;28;20026;-77
2021/11/20 11:31:18;;;;;;;3.67;2.10;;;;;;;;;;5010952;28;20025;-79
2021/11/20 11:33:46;;;;;;;4.38;2.75;;;;;;;;;;5016386;28;20026;-80
2021/11/20 11:36:12;;;;;;;3.97;2.33;;;;;;;;;;5016446;28;20478;-78
2021/11/20 11:38:57;;;;;;;4.38;2.47;;;;;;;;;;5011182;28;20034;-79
2021/11/20 11:41:29;;;;;;;3.40;2.47;;;;;;;;;;4998303;28;20033;-79
2021/11/20 11:44:11;;;;;;;3.25;2.03;;;;;;;;;;5015728;28;20510;-78
2021/11/20 11:46:37;;;;;;;4.72;2.65;;;;;;;;;;5016670;28;20083;-79
2021/11/20 11:49:08;;;;;;;4.40;2.30;;;;;;;;;;5014565;28;20125;-79
2021/11/20 11:51:43;;;;;;;3.53;2.40;;;;;;;;;;4998305;28;20050;-81
2021/11/20 11:54:20;;;;;;;4.40;2.58;;;;;;;;;;4997841;28;20398;-80
2021/11/20 11:57:07;;;;;;;4.20;2.42;;;;;;;;;;4998406;28;20053;-80
2021/11/20 11:59:41;;;;;;;5.63;3.05;;;;;;;;;;5012162;28;20076;-80
2021/11/20 12:02:28;;;;;;;5.20;3.42;;;;;;;;;;5018027;28;20026;-81
2021/11/20 12:04:56;;;;;;;4.15;3.08;;;;;;;;;;4987345;28;20043;-80
2021/11/20 12:07:28;;;;;;;5.47;3.20;;;;;;;;;;4997876;28;20019;-82
2021/11/20 12:10:12;;;;;;;4.57;3.67;;;;;;;;;;4979565;28;20072;-80
2021/11/20 12:12:40;;;;;;;5.43;4.03;;;;;;;;;;4997393;28;20037;-81
2021/11/20 12:15:15;;;;;;;4.10;2.92;;;;;;;;;;5012634;28;20076;-81
2021/11/20 12:18:00;;;;;;;4.50;2.80;;;;;;;;;;4998890;28;20034;-81
2021/11/20 12:20:39;;;;;;;4.68;3.17;;;;;;;;;;5015873;28;20026;-81
2021/11/20 12:23:24;;;;;;;4.50;2.95;;;;;;;;;;5016659;28;20050;-80
2021/11/20 12:25:55;;;;;;;5.45;2.75;;;;;;;;;;5017790;28;20021;-81
2021/11/20 12:28:28;;;;;;;3.65;2.15;;;;;;;;;;5014209;28;20475;-81
2021/11/20 12:31:12;;;;;;;3.70;2.30;;;;;;;;;;5007454;28;20049;-81
2021/11/20 12:33:57;;;;;;;4.55;2.25;;;;;;;;;;5001998;28;20038;-80
2021/11/20 12:36:42;;;;;;;4.07;2.40;;;;;;;;;;5016239;28;20030;-80
2021/11/20 12:39:20;;;;;;;5.65;2.88;;;;;;;;;;5005783;28;20057;-80
2021/11/20 12:42:05;;;;;;;4.53;2.33;;;;;;;;;;4996428;28;20494;-80
2021/11/20 12:44:56;;;;;;;4.63;2.55;;;;;;;;;;4996076;28;20500;-81
2021/11/20 12:47:26;;;;;;;4.05;2.20;;;;;;;;;;5004490;28;20057;-81
2021/11/20 12:50:11;;;;;;;4.55;2.55;;;;;;;;;;4994747;28;20038;-81
2021/11/20 12:52:56;;;;;;;4.28;2.63;;;;;;;;;;4981283;28;20022;-79
2021/11/20 12:55:32;;;;;;;5.22;2.28;;;;;;;;;;5005336;28;20032;-79
2021/11/20 12:58:09;;;;;;;4.65;2.20;;;;;;;;;;5006528;28;20036;-80
2021/11/20 13:00:38;;;;;;;4.22;2.15;;;;;;;;;;5005488;28;20058;-80
2021/11/20 13:03:16;;;;;;;4.22;2.40;;;;;;;;;;5023865;28;20034;-80
2021/11/20 13:05:55;;;;;;;3.33;1.80;;;;;;;;;;5007256;28;20034;-80
2021/11/20 13:08:27;;;;;;;4.03;2.60;;;;;;;;;;5019730;28;20046;-80
2021/11/20 13:11:09;;;;;;;3.72;2.65;;;;;;;;;;5020378;28;20033;-80
2021/11/20 13:13:44;;;;;;;5.93;2.88;;;;;;;;;;5016133;28;20026;-81
2021/11/20 13:16:13;;;;;;;4.10;2.60;;;;;;;;;;5015567;28;20036;-81
2021/11/20 13:18:42;;;;;;;4.85;2.88;;;;;;;;;;5014717;28;20028;-81
2021/11/20 13:21:24;;;;;;;3.95;2.28;;;;;;;;;;5015802;28;20029;-80
2021/11/20 13:24:01;;;;;;;5.20;3.45;;;;;;;;;;5016215;28;20049;-81
2021/11/20 13:26:27;;;;;;;5.82;2.75;;;;;;;;;;5015955;28;20026;-81
2021/11/20 13:28:55;;;;;;;4.38;2.80;;;;;;;;;;5004174;28;20061;-81
2021/11/20 13:31:30;;;;;;;3.47;2.50;;;;;;;;;;5005626;28;20018;-80
2021/11/20 13:33:56;;;;;;;4.88;2.67;;;;;;;;;;5022675;28;20026;-80
2021/11/20 13:36:22;;;;;;;4.35;2.90;;;;;;;;;;5006882;28;20048;-81
2021/11/20 13:38:49;;;;;;;5.25;2.30;;;;;;;;;;5021898;28;20041;-81
2021/11/20 13:41:15;;;;;;;3.42;2.38;;;;;;;;;;5022462;28;20052;-81
2021/11/20 13:43:44;;;;;;;3.97;2.40;;;;;;;;;;4996175;28;20038;-81